Time;durP1;ratioP1;P1;durP2;ratioP2;P2;SDS_P1;SDS_P2;PMS_P1;PMS_P2;Temp;Humidity;BMP_temperature;BMP_pressure;BME280_temperature;BME280_humidity;BME280_pressure;Samples;Min_cycle;Max_cycle;Signal;HPM_P1;HPM_P2
2023/01/30 12:17:09;;;;;;;9.80;8.80;;;;;;;0.19;89.99;98805.20;105602;1313;559259;-93
2023/01/30 12:22:44;;;;;;;7.40;6.60;;;;;;;0.13;89.50;98800.66;108482;1265;22549;-86
2023/01/30 12:25:51;;;;;;;8.80;7.50;;;;;;;0.17;89.54;98792.02;106599;1294;22554;-91
2023/01/30 12:29:30;;;;;;;13.50;9.40;;;;;;;0.19;89.09;98795.85;107531;1289;319744;-92
2023/01/30 12:33:00;;;;;;;9.30;8.40;;;;;;;0.19;89.04;98807.27;109078;1296;22534;-89
2023/01/30 12:41:23;;;;;;;11.10;9.20;;;;;;;0.28;88.81;98789.84;108167;1301;24307;-91
2023/01/30 13:04:48;;;;;;;10.70;9.20;;;;;;;0.47;88.10;98786.16;107252;1279;22557;-88
2023/01/30 13:07:38;;;;;;;9.20;7.90;;;;;;;0.53;88.17;98776.15;106848;1285;22540;-88
2023/01/30 13:10:59;;;;;;;11.10;8.90;;;;;;;0.54;87.92;98773.21;107023;1285;25916;-88
2023/01/30 13:17:55;;;;;;;8.90;7.70;;;;;;;0.61;88.09;98781.56;105607;1301;25427;-87
2023/01/30 13:21:11;;;;;;;10.80;9.70;;;;;;;0.62;87.81;98783.83;104701;1307;22582;-89
2023/01/30 13:24:06;;;;;;;11.50;9.10;;;;;;;0.59;87.94;98782.41;103869;1318;22751;-89
2023/01/30 13:26:40;;;;;;;9.50;8.20;;;;;;;0.58;87.99;98775.66;103897;1323;22589;-88
2023/01/30 13:29:41;;;;;;;7.10;6.20;;;;;;;0.57;88.19;98779.98;104918;1306;23944;-88
2023/01/30 13:32:41;;;;;;;11.60;10.30;;;;;;;0.55;88.09;98777.55;103705;1322;22586;-88
2023/01/30 13:35:45;;;;;;;12.30;9.80;;;;;;;0.53;88.31;98768.52;103311;1323;24253;-89
2023/01/30 13:38:41;;;;;;;9.60;8.60;;;;;;;0.56;88.57;98770.45;103134;1323;22570;-89
2023/01/30 13:47:51;;;;;;;12.80;10.60;;;;;;;0.60;88.68;98764.76;104051;1313;545225;-89
2023/01/30 13:50:55;;;;;;;13.20;11.10;;;;;;;0.62;88.77;98765.11;106618;1288;22707;-89
2023/01/30 13:53:38;;;;;;;13.00;11.60;;;;;;;0.64;88.74;98764.43;106636;1288;25411;-88
2023/01/30 13:56:38;;;;;;;13.20;9.70;;;;;;;0.66;88.83;98764.97;106415;1289;22771;-88
2023/01/30 13:59:40;;;;;;;12.50;10.60;;;;;;;0.65;88.83;98765.83;106506;1289;25304;-88
2023/01/30 14:02:22;;;;;;;14.30;10.20;;;;;;;0.64;88.89;98758.55;104940;1298;1114404;-89
2023/01/30 14:05:15;;;;;;;13.40;11.50;;;;;;;0.65;88.99;98776.05;105469;1298;25340;-87
2023/01/30 14:08:29;;;;;;;12.50;10.60;;;;;;;0.68;88.99;98775.89;106248;1292;22580;-88
2023/01/30 14:11:41;;;;;;;15.40;11.90;;;;;;;0.70;88.85;98776.76;106169;1292;22550;-88
2023/01/30 14:14:40;;;;;;;12.30;11.00;;;;;;;0.72;88.75;98781.10;106301;1292;22569;-89
2023/01/30 14:17:25;;;;;;;14.60;11.60;;;;;;;0.74;88.66;98783.71;105787;1298;22571;-89
2023/01/30 14:20:36;;;;;;;10.70;9.60;;;;;;;0.79;88.87;98795.35;105508;1298;25271;-90
2023/01/30 14:23:37;;;;;;;12.10;10.00;;;;;;;0.81;88.60;98791.89;105493;1302;22562;-88
2023/01/30 14:26:07;;;;;;;11.10;9.30;;;;;;;0.82;88.45;98797.26;107002;1303;22572;-89
2023/01/30 14:29:03;;;;;;;11.70;10.50;;;;;;;0.83;88.32;98801.43;107436;1302;22245;-90
2023/01/30 14:31:49;;;;;;;13.50;11.70;;;;;;;0.81;88.22;98795.52;107962;1303;22674;-89
2023/01/30 14:34:42;;;;;;;13.40;11.60;;;;;;;0.82;88.44;98795.35;107317;1308;24239;-89
2023/01/30 14:37:59;;;;;;;12.50;11.10;;;;;;;0.86;88.32;98796.58;106926;1305;545081;-89
2023/01/30 14:45:37;;;;;;;12.60;10.40;;;;;;;0.84;88.33;98804.55;109859;1262;22337;31
2023/01/30 14:48:34;;;;;;;12.60;10.90;;;;;;;0.90;88.36;98806.50;109171;1290;22560;-90
2023/01/30 14:51:55;;;;;;;10.80;9.60;;;;;;;0.96;88.26;98796.81;107128;1305;544774;-88
2023/01/30 14:54:29;;;;;;;11.40;10.00;;;;;;;0.94;88.11;98794.72;108448;1295;22318;-89
2023/01/30 14:57:23;;;;;;;13.40;11.60;;;;;;;0.93;88.16;98796.62;108102;1303;22598;-88
2023/01/30 14:59:54;;;;;;;12.80;10.60;;;;;;;0.93;88.20;98796.45;109427;1294;22574;-89
2023/01/30 15:03:16;;;;;;;12.00;10.50;;;;;;;0.97;88.45;98794.05;109280;1294;22318;-89
2023/01/30 15:05:46;;;;;;;13.40;11.40;;;;;;;1.01;88.28;98790.75;109218;1292;222347;-88
2023/01/30 15:08:37;;;;;;;14.00;11.20;;;;;;;1.04;88.34;98796.84;109382;1289;22560;-90
2023/01/30 15:11:10;;;;;;;13.60;10.30;;;;;;;1.09;88.30;98800.67;109062;1292;22871;-88
2023/01/30 15:13:56;;;;;;;11.70;10.50;;;;;;;1.11;88.02;98798.94;109351;1292;22598;-89
2023/01/30 15:17:01;;;;;;;12.50;10.80;;;;;;;1.12;87.88;98798.27;109646;1292;22168;-88
2023/01/30 15:25:58;;;;;;;13.90;10.90;;;;;;;1.06;87.79;98799.10;94658;1261;1039312;31
2023/01/30 15:29:25;;;;;;;;;;;;;;;1.05;87.85;98806.54;109323;1268;22548;-85
2023/01/30 15:41:56;;;;;;;12.10;10.40;;;;;;;1.07;87.69;98811.58;108833;1264;22753;31
2023/01/30 15:47:53;;;;;;;10.10;9.10;;;;;;;1.08;87.78;98816.28;109472;1267;22505;31
2023/01/30 16:17:32;;;;;;;16.90;10.20;;;;;;;1.40;86.73;98830.61;87134;1277;23842;-84
2023/01/30 17:08:41;;;;;;;12.90;9.60;;;;;;;1.65;85.71;98852.70;109158;1284;22573;-90
2023/01/30 17:11:38;;;;;;;12.10;9.30;;;;;;;1.65;85.65;98849.75;108480;1285;22546;-91
2023/01/30 17:14:38;;;;;;;12.40;9.50;;;;;;;1.66;85.52;98847.33;108858;1288;22581;-91
2023/01/30 17:17:08;;;;;;;11.50;9.10;;;;;;;1.70;85.69;98844.73;108451;1298;25782;-90
2023/01/30 17:19:37;;;;;;;11.50;8.30;;;;;;;1.73;85.74;98848.20;108145;1297;22940;-91
2023/01/30 17:22:18;;;;;;;10.80;8.80;;;;;;;1.76;85.54;98850.65;108633;1297;22036;-90
2023/01/30 17:24:57;;;;;;;11.30;9.20;;;;;;;1.74;85.33;98849.43;108733;1297;22442;-91
2023/01/30 17:28:22;;;;;;;12.90;8.80;;;;;;;1.76;85.37;98856.37;109159;1297;22455;-92
2023/01/30 17:30:55;;;;;;;10.60;8.90;;;;;;;1.76;85.15;98857.94;108539;1298;22577;-90
2023/01/30 17:33:24;;;;;;;11.50;7.80;;;;;;;1.76;85.26;98862.98;108504;1297;22544;-91
2023/01/30 17:36:20;;;;;;;11.90;8.90;;;;;;;1.74;84.98;98865.92;108377;1297;24456;-90
2023/01/30 17:39:18;;;;;;;10.00;8.20;;;;;;;1.73;85.10;98870.77;108629;1297;22594;-90
2023/01/30 17:42:10;;;;;;;9.10;8.00;;;;;;;1.75;85.13;98868.52;108657;1298;22139;-91
2023/01/30 17:44:43;;;;;;;9.50;7.90;;;;;;;1.78;84.98;98865.06;108545;1298;22517;-90
2023/01/30 17:47:17;;;;;;;11.10;8.40;;;;;;;1.80;84.85;98875.31;108737;1297;22188;-91
2023/01/30 17:49:48;;;;;;;11.40;8.30;;;;;;;1.80;84.86;98874.42;109216;1295;22150;-90
2023/01/30 17:52:17;;;;;;;10.90;8.40;;;;;;;1.82;84.91;98870.45;109247;1297;22199;-90
2023/01/30 17:54:45;;;;;;;9.90;7.70;;;;;;;1.85;84.81;98870.10;109706;1289;22150;-91
2023/01/30 17:57:16;;;;;;;10.00;8.20;;;;;;;1.87;84.69;98872.54;109746;1293;22244;-91
2023/01/30 17:59:48;;;;;;;10.10;7.50;;;;;;;1.90;84.61;98866.63;108108;1303;22180;-91
2023/01/30 18:02:18;;;;;;;11.50;7.40;;;;;;;1.91;84.59;98865.42;107895;1311;22155;-92
2023/01/30 18:04:49;;;;;;;11.70;8.00;;;;;;;1.93;84.56;98864.91;107144;1318;22174;-92
2023/01/30 18:07:18;;;;;;;9.60;7.20;;;;;;;1.94;84.45;98863.52;107088;1317;22214;-90
2023/01/30 18:09:46;;;;;;;9.50;7.80;;;;;;;1.95;84.32;98862.48;107043;1317;22286;-91
2023/01/30 18:12:15;;;;;;;9.30;7.80;;;;;;;1.93;84.31;98866.66;107098;1316;22229;-92
2023/01/30 18:14:43;;;;;;;11.20;8.40;;;;;;;1.92;84.38;98867.17;107211;1318;22206;-92
2023/01/30 18:17:11;;;;;;;8.60;7.10;;;;;;;1.96;84.41;98871.69;107019;1318;22629;-91
2023/01/30 18:19:41;;;;;;;8.80;6.80;;;;;;;1.97;84.19;98873.60;107212;1318;22204;-90
2023/01/30 18:22:09;;;;;;;8.30;7.40;;;;;;;1.97;84.17;98874.64;107101;1311;22229;-90
2023/01/30 18:24:41;;;;;;;9.40;8.00;;;;;;;2.00;84.36;98877.77;107303;1310;22284;-90
2023/01/30 18:28:24;;;;;;;8.50;7.50;;;;;;;2.02;84.01;98880.89;107251;1306;544930;-90
2023/01/30 18:30:51;;;;;;;8.90;7.00;;;;;;;1.97;84.07;98880.20;109468;1287;22645;-89
2023/01/30 18:33:20;;;;;;;11.20;7.60;;;;;;;1.96;83.96;98878.80;109604;1288;22565;-93
2023/01/30 18:35:50;;;;;;;8.90;7.00;;;;;;;1.96;83.99;98882.11;109567;1288;22573;-90
2023/01/30 18:38:45;;;;;;;8.50;6.70;;;;;;;1.97;84.06;98884.73;109431;1288;22571;-89
2023/01/30 18:41:37;;;;;;;9.30;7.00;;;;;;;1.99;84.08;98879.67;108123;1286;1766688;-89
2023/01/30 18:44:28;;;;;;;11.20;7.00;;;;;;;2.02;83.96;98885.59;109609;1286;22586;-91
2023/01/30 18:47:27;;;;;;;9.00;6.40;;;;;;;2.04;83.95;98880.72;109436;1290;22480;-90
2023/01/30 18:49:58;;;;;;;10.80;8.50;;;;;;;2.06;83.74;98878.30;109480;1290;22543;-89
2023/01/30 18:52:30;;;;;;;9.70;7.00;;;;;;;2.07;83.79;98876.21;109271;1290;22554;-91
2023/01/30 18:54:57;;;;;;;9.60;7.10;;;;;;;2.07;83.70;98876.73;109607;1286;22534;-90
2023/01/30 18:57:27;;;;;;;10.00;7.20;;;;;;;2.07;83.72;98873.79;109630;1287;22570;-91
2023/01/30 19:00:05;;;;;;;8.10;7.20;;;;;;;2.09;83.85;98878.29;109758;1287;22553;-90
2023/01/30 19:02:37;;;;;;;10.50;7.80;;;;;;;2.10;83.77;98878.30;109800;1282;22202;-91
2023/01/30 19:05:06;;;;;;;9.30;7.60;;;;;;;2.06;83.57;98875.69;109802;1283;22537;-91
2023/01/30 19:07:47;;;;;;;9.00;6.90;;;;;;;2.03;83.68;98877.77;109843;1283;22950;-90
2023/01/30 19:10:31;;;;;;;10.40;7.10;;;;;;;2.03;83.87;98882.98;109887;1258;22577;-92
2023/01/30 19:13:35;;;;;;;9.50;7.40;;;;;;;2.03;83.79;98887.84;109697;1281;22568;-89
2023/01/30 19:16:19;;;;;;;12.00;8.30;;;;;;;1.95;83.75;98882.63;108982;1285;22587;-90
2023/01/30 19:19:11;;;;;;;10.50;6.90;;;;;;;1.93;84.08;98881.94;109133;1285;24270;-90
2023/01/30 19:21:42;;;;;;;10.40;7.40;;;;;;;1.93;84.25;98889.39;108680;1289;23873;-90
2023/01/30 19:24:16;;;;;;;10.70;7.90;;;;;;;1.96;84.34;98890.96;108015;1295;24269;-91
2023/01/30 19:26:47;;;;;;;8.30;7.10;;;;;;;1.97;84.25;98889.57;107735;1295;22572;-91
2023/01/30 19:29:24;;;;;;;11.70;7.40;;;;;;;1.96;84.12;98878.98;107437;1295;23861;-90
2023/01/30 19:31:53;;;;;;;9.10;7.00;;;;;;;1.95;84.20;98891.30;106808;1299;22759;-87
2023/01/30 19:34:52;;;;;;;10.30;7.90;;;;;;;1.99;84.19;98886.80;105552;1305;546274;-89
2023/01/30 19:37:23;;;;;;;11.80;8.40;;;;;;;1.97;84.32;98893.05;108247;1288;22573;-89
2023/01/30 19:40:13;;;;;;;12.00;7.80;;;;;;;1.98;84.33;98893.73;109526;1289;22596;-90
2023/01/30 19:43:13;;;;;;;12.20;8.20;;;;;;;2.01;84.49;98900.70;108918;1288;22581;-92
2023/01/30 19:46:13;;;;;;;11.30;7.70;;;;;;;2.00;84.43;98905.02;108659;1288;24207;-91
2023/01/30 19:49:06;;;;;;;11.30;8.10;;;;;;;1.97;84.49;98900.00;107541;1285;1550724;-89
2023/01/30 19:54:23;;;;;;;10.10;7.40;;;;;;;1.98;84.55;98902.94;109344;1266;22598;-92
2023/01/30 19:57:01;;;;;;;11.70;7.70;;;;;;;1.97;84.74;98906.95;108963;1292;22616;-92
2023/01/30 19:59:37;;;;;;;10.00;7.20;;;;;;;1.97;84.88;98911.11;109178;1292;22632;-92
2023/01/30 20:02:34;;;;;;;;;;;;;;;;;;;;;
2023/01/30 20:05:13;;;;;;;12.20;8.20;;;;;;;1.96;84.95;98910.07;109392;1292;23006;-92
2023/01/30 20:10:31;;;;;;;8.50;6.40;;;;;;;2.00;84.98;98907.64;97831;1288;22630;-90
2023/01/30 20:15:08;;;;;;;8.80;7.10;;;;;;;1.99;85.04;98907.98;107317;1304;544843;-90
2023/01/30 20:17:36;;;;;;;9.80;6.70;;;;;;;1.95;84.99;98911.11;109735;1286;22881;-94
2023/01/30 20:20:13;;;;;;;13.60;8.10;;;;;;;1.94;85.17;98910.39;109548;1283;22538;-92
2023/01/30 20:22:43;;;;;;;9.60;6.50;;;;;;;1.95;85.36;98910.41;109485;1284;22603;-89
2023/01/30 20:26:41;;;;;;;11.50;7.50;;;;;;;1.96;85.22;98906.77;107835;1299;545007;-93
2023/01/30 20:29:22;;;;;;;9.40;6.70;;;;;;;1.88;85.46;98908.47;109499;1280;22206;-91
2023/01/30 20:35:17;;;;;;;9.10;7.00;;;;;;;1.89;85.62;98921.67;109362;1294;22303;-93
2023/01/30 20:37:59;;;;;;;9.80;7.30;;;;;;;1.88;85.75;98938.85;109424;1292;22522;-92
2023/01/30 20:59:22;;;;;;;9.80;7.00;;;;;;;2.01;85.75;98964.95;106778;1280;22364;-92
2023/01/30 21:01:56;;;;;;;11.90;7.10;;;;;;;2.04;85.59;98965.98;109626;1290;22501;-92
2023/01/30 21:04:24;;;;;;;11.30;6.40;;;;;;;2.07;85.60;98968.77;109518;1289;22619;-92
2023/01/30 21:09:40;;;;;;;8.40;6.10;;;;;;;2.13;85.42;98980.25;109953;1287;22254;-92
2023/01/30 21:46:16;;;;;;;8.50;5.90;;;;;;;2.29;83.61;99004.61;111598;1254;22280;31
2023/01/30 21:55:56;;;;;;;7.20;5.40;;;;;;;2.09;84.07;99009.94;111940;1244;22513;31
2023/01/30 22:05:35;;;;;;;7.50;6.20;;;;;;;2.01;84.25;99013.38;111534;1254;22504;31
2023/01/30 22:11:23;;;;;;;9.90;7.00;;;;;;;1.97;84.24;99014.41;112117;1254;22530;-95
2023/01/30 22:14:18;;;;;;;9.60;6.80;;;;;;;1.96;84.41;99017.36;112383;1254;22546;-92
2023/01/30 22:16:45;;;;;;;12.30;7.30;;;;;;;1.95;84.37;99019.27;111088;1256;22463;-90
2023/01/30 22:19:15;;;;;;;8.80;6.70;;;;;;;1.92;84.37;99027.95;110574;1262;24617;-92
2023/01/30 22:21:43;;;;;;;9.80;7.90;;;;;;;1.89;84.39;99030.52;110629;1262;23932;-92
2023/01/30 22:44:22;;;;;;;;;;;;;;;;;;;;;
2023/01/30 22:52:50;;;;;;;12.10;7.00;;;;;;;2.07;83.72;99069.16;107817;1299;22287;-93
2023/01/30 22:55:26;;;;;;;8.80;6.10;;;;;;;2.05;83.53;99059.77;107710;1286;22593;-93
2023/01/30 22:58:03;;;;;;;9.70;5.90;;;;;;;2.02;83.75;99063.75;107898;1282;22333;-91
2023/01/30 23:00:36;;;;;;;10.80;6.90;;;;;;;2.05;83.92;99067.06;107864;1286;22039;-91
2023/01/30 23:03:06;;;;;;;9.70;5.80;;;;;;;2.07;83.90;99062.21;107898;1307;22092;-93
2023/01/30 23:05:45;;;;;;;;;;;;;;;2.08;83.68;99061.86;108175;1276;22537;-89
2023/01/30 23:09:20;;;;;;;8.00;5.10;;;;;;;2.02;83.79;99052.63;108816;1280;21947;-93
2023/01/30 23:14:53;;;;;;;9.40;5.80;;;;;;;1.97;83.81;99055.92;108452;1292;22631;-92
2023/01/30 23:20:36;;;;;;;9.40;5.90;;;;;;;1.99;84.03;99062.34;107857;1297;22574;-91
2023/01/30 23:23:26;;;;;;;11.10;5.70;;;;;;;1.96;83.85;99061.30;107903;1288;22549;-91
2023/01/30 23:25:55;;;;;;;7.90;5.80;;;;;;;1.94;83.95;99060.77;107623;1297;22743;-89
2023/01/30 23:28:23;;;;;;;15.00;6.10;;;;;;;1.97;84.03;99060.96;108108;1300;22652;-90
2023/01/30 23:31:23;;;;;;;10.20;5.90;;;;;;;1.94;84.01;99065.47;107795;1302;24254;-90
2023/01/30 23:34:29;;;;;;;9.10;6.30;;;;;;;1.93;83.97;99061.98;107781;1302;22567;-91
2023/01/30 23:37:03;;;;;;;8.50;5.40;;;;;;;1.93;84.07;99060.42;108390;1302;22024;-92
2023/01/30 23:39:33;;;;;;;9.50;5.50;;;;;;;1.94;84.20;99061.98;108054;1302;22562;-91
2023/01/30 23:45:08;;;;;;;9.80;5.70;;;;;;;1.95;84.09;99058.17;108869;1283;22199;-91
2023/01/30 23:47:37;;;;;;;9.40;6.10;;;;;;;1.97;84.19;99058.35;108723;1295;22711;-92
2023/01/30 23:50:06;;;;;;;7.70;5.60;;;;;;;2.00;84.11;99060.45;107653;1301;22651;-90
2023/01/30 23:52:47;;;;;;;;;;;;;;;;;;;;;
2023/01/30 23:55:31;;;;;;;15.30;6.50;;;;;;;2.02;84.09;99074.70;109124;1286;22179;-91
2023/01/30 23:58:54;;;;;;;9.10;5.90;;;;;;;2.03;84.04;99072.26;108698;1297;22559;-90
